Time;durP1;ratioP1;P1;durP2;ratioP2;P2;SDS_P1;SDS_P2;PMS_P1;PMS_P2;Temp;Humidity;BMP_temperature;BMP_pressure;BME280_temperature;BME280_humidity;BME280_pressure;Samples;Min_cycle;Max_cycle;Signal;HPM_P1;HPM_P2
2023/09/23 00:01:25;;;;;;;4.38;1.48;;;;;;;-145.50;100.00;65435.88;5050153;28;20365;-72
2023/09/23 00:03:52;;;;;;;3.33;1.35;;;;;;;-145.50;100.00;65435.88;5053477;28;20589;-72
2023/09/23 00:06:22;;;;;;;3.80;1.45;;;;;;;-145.50;100.00;65435.88;5050379;28;20045;-72
2023/09/23 00:08:48;;;;;;;2.90;1.40;;;;;;;-145.50;100.00;65435.88;5048883;28;20059;-72
2023/09/23 00:11:15;;;;;;;1.65;1.20;;;;;;;-145.50;100.00;65435.88;5045267;28;20052;-71
2023/09/23 00:13:42;;;;;;;3.22;1.33;;;;;;;-145.50;100.00;65435.88;5062534;28;20056;-71
2023/09/23 00:16:16;;;;;;;3.72;1.10;;;;;;;-145.50;100.00;65435.88;5040027;28;20054;-72
2023/09/23 00:18:43;;;;;;;1.88;1.30;;;;;;;-145.50;100.00;65435.88;5061184;28;20050;-72
2023/09/23 00:21:12;;;;;;;2.42;1.13;;;;;;;-145.50;100.00;65435.88;5051352;28;20348;-72
2023/09/23 00:23:40;;;;;;;3.63;1.20;;;;;;;-145.50;100.00;65435.88;5048355;28;20164;-72
2023/09/23 00:26:07;;;;;;;1.60;0.90;;;;;;;-145.50;100.00;65435.88;5058027;28;20045;-71
2023/09/23 00:28:34;;;;;;;1.85;1.02;;;;;;;-145.50;100.00;65435.88;5050562;28;20049;-72
2023/09/23 00:31:11;;;;;;;1.70;1.08;;;;;;;-145.50;100.00;65435.88;5047099;28;20055;-71
2023/09/23 00:33:38;;;;;;;1.60;1.08;;;;;;;-145.50;100.00;65435.88;5050051;28;20059;-72
2023/09/23 00:36:10;;;;;;;3.35;1.30;;;;;;;-145.50;100.00;65435.88;5047311;28;20048;-71
2023/09/23 00:38:37;;;;;;;2.25;1.10;;;;;;;-145.50;100.00;65435.88;5040165;28;20082;-71
2023/09/23 00:41:08;;;;;;;3.03;1.20;;;;;;;-145.50;100.00;65435.88;5058724;28;20135;-72
2023/09/23 00:43:35;;;;;;;2.28;1.25;;;;;;;-145.50;100.00;65435.88;5054641;28;20399;-72
2023/09/23 00:46:06;;;;;;;2.60;1.27;;;;;;;-145.50;100.00;65435.88;5048870;28;20779;-72
2023/09/23 00:48:38;;;;;;;2.38;1.48;;;;;;;-145.50;100.00;65435.88;5059963;28;20503;-72
2023/09/23 00:51:09;;;;;;;2.42;1.40;;;;;;;-145.50;100.00;65435.88;5049452;28;20062;-72
2023/09/23 00:53:39;;;;;;;1.67;1.27;;;;;;;-145.50;100.00;65435.88;5052831;28;20048;-71
2023/09/23 00:56:15;;;;;;;2.13;1.60;;;;;;;-145.50;100.00;65435.88;5052244;28;20332;-71
2023/09/23 00:58:42;;;;;;;2.50;1.50;;;;;;;-145.50;100.00;65435.88;5059324;28;20450;-72
2023/09/23 01:01:10;;;;;;;1.33;1.10;;;;;;;-145.50;100.00;65435.88;5052818;28;20048;-72
2023/09/23 01:03:38;;;;;;;2.05;1.40;;;;;;;-145.50;100.00;65435.88;5056068;28;20064;-71
2023/09/23 01:06:16;;;;;;;3.78;1.60;;;;;;;-145.50;100.00;65435.88;5048387;28;20045;-71
2023/09/23 01:08:47;;;;;;;2.50;1.50;;;;;;;-145.50;100.00;65435.88;5053610;28;20088;-72
2023/09/23 01:11:17;;;;;;;2.75;1.40;;;;;;;-145.50;100.00;65435.88;5061652;28;20052;-71
2023/09/23 01:13:46;;;;;;;3.60;1.73;;;;;;;-145.50;100.00;65435.88;5053954;28;20553;-71
2023/09/23 01:16:13;;;;;;;3.53;1.75;;;;;;;-145.50;100.00;65435.88;5053522;28;20105;-71
2023/09/23 01:18:45;;;;;;;3.00;1.90;;;;;;;-145.50;100.00;65435.88;5056954;28;20742;-72
2023/09/23 01:21:12;;;;;;;5.55;2.28;;;;;;;-145.50;100.00;65435.88;5044132;28;20045;-72
2023/09/23 01:23:39;;;;;;;5.75;2.80;;;;;;;-145.50;100.00;65435.88;5054430;28;21115;-72
2023/09/23 01:26:06;;;;;;;5.43;3.90;;;;;;;-145.50;100.00;65435.88;5042952;28;20061;-72
2023/09/23 01:28:33;;;;;;;6.45;4.45;;;;;;;-145.50;100.00;65435.88;5055615;28;20052;-72
2023/09/23 01:31:01;;;;;;;10.00;6.00;;;;;;;-145.50;100.00;65435.88;5033364;28;20118;-72
2023/09/23 01:33:29;;;;;;;8.63;5.87;;;;;;;-145.50;100.00;65435.88;5050742;28;20046;-72
2023/09/23 01:36:02;;;;;;;8.98;7.55;;;;;;;-145.50;100.00;65435.88;5054934;28;20403;-72
2023/09/23 01:38:32;;;;;;;10.82;8.68;;;;;;;-145.50;100.00;65435.88;5056868;28;20649;-71
2023/09/23 01:41:01;;;;;;;11.15;9.07;;;;;;;-145.50;100.00;65435.88;5052177;28;20045;-71
2023/09/23 01:43:29;;;;;;;11.13;9.32;;;;;;;-145.50;100.00;65435.88;5043017;28;20052;-71
2023/09/23 01:46:02;;;;;;;13.32;9.10;;;;;;;-145.50;100.00;65435.88;5047876;28;20060;-72
2023/09/23 01:48:29;;;;;;;12.65;9.25;;;;;;;-145.50;100.00;65435.88;5052745;28;20481;-71
2023/09/23 01:50:59;;;;;;;12.63;9.88;;;;;;;-145.50;100.00;65435.88;5062751;28;20367;-72
2023/09/23 01:53:27;;;;;;;13.43;10.05;;;;;;;-145.50;100.00;65435.88;5047842;28;20056;-72
2023/09/23 01:55:55;;;;;;;14.73;10.38;;;;;;;-145.50;100.00;65435.88;5065506;28;20048;-72
2023/09/23 01:58:22;;;;;;;14.73;10.75;;;;;;;-145.50;100.00;65435.88;5054940;28;20144;-72
2023/09/23 02:00:54;;;;;;;13.35;10.57;;;;;;;-145.50;100.00;65435.88;5050169;28;20052;-73
2023/09/23 02:03:22;;;;;;;16.45;11.18;;;;;;;-145.50;100.00;65435.88;5057372;28;20049;-72
2023/09/23 02:05:49;;;;;;;15.57;10.13;;;;;;;-145.50;100.00;65435.88;5041226;28;20407;-72
2023/09/23 02:08:16;;;;;;;13.80;10.35;;;;;;;-145.50;100.00;65435.88;5047615;28;20490;-72
2023/09/23 02:10:44;;;;;;;15.20;10.82;;;;;;;-145.50;100.00;65435.88;5046803;28;20139;-72
2023/09/23 02:13:11;;;;;;;13.77;10.93;;;;;;;-145.50;100.00;65435.88;5057224;28;20497;-73
2023/09/23 02:15:38;;;;;;;15.95;11.27;;;;;;;-145.50;100.00;65435.88;5064937;28;20122;-72
2023/09/23 02:18:06;;;;;;;19.35;11.27;;;;;;;-145.50;100.00;65435.88;5048933;28;20142;-72
2023/09/23 02:20:34;;;;;;;17.92;11.13;;;;;;;-145.50;100.00;65435.88;5056329;28;20072;-72
2023/09/23 02:23:00;;;;;;;15.95;11.13;;;;;;;-145.50;100.00;65435.88;5049197;28;20056;-72
2023/09/23 02:25:27;;;;;;;17.77;12.00;;;;;;;-145.50;100.00;65435.88;5045917;28;20057;-72
2023/09/23 02:27:57;;;;;;;15.15;12.25;;;;;;;-145.50;100.00;65435.88;5048964;28;20041;-72
2023/09/23 02:30:24;;;;;;;17.45;12.40;;;;;;;-145.50;100.00;65435.88;5049542;28;20060;-71
2023/09/23 02:32:51;;;;;;;15.57;12.23;;;;;;;-145.50;100.00;65435.88;5054754;28;20090;-72
2023/09/23 02:35:18;;;;;;;18.52;11.25;;;;;;;-145.50;100.00;65435.88;5049840;28;20048;-72
2023/09/23 02:37:46;;;;;;;14.63;11.45;;;;;;;-145.50;100.00;65435.88;5065697;28;20060;-72
2023/09/23 02:40:17;;;;;;;17.20;13.52;;;;;;;-145.50;100.00;65435.88;5039545;28;20052;-75
2023/09/23 02:42:46;;;;;;;16.70;12.40;;;;;;;-145.50;100.00;65435.88;5050723;28;20409;-72
2023/09/23 02:45:15;;;;;;;17.85;12.25;;;;;;;-145.50;100.00;65435.88;5053176;28;20045;-72
2023/09/23 02:47:43;;;;;;;16.50;13.63;;;;;;;-145.50;100.00;65435.88;5052982;28;20134;-72
2023/09/23 02:50:13;;;;;;;18.05;13.23;;;;;;;-145.50;100.00;65435.88;5065012;28;20408;-72
2023/09/23 02:52:41;;;;;;;18.48;13.75;;;;;;;-145.50;100.00;65435.88;5056454;28;20100;-72
2023/09/23 02:55:12;;;;;;;17.40;12.52;;;;;;;-145.50;100.00;65435.88;5050253;28;20056;-72
2023/09/23 02:57:40;;;;;;;19.92;14.05;;;;;;;-145.50;100.00;65435.88;5059230;28;20456;-72
2023/09/23 03:00:29;;;;;;;19.63;13.88;;;;;;;-145.50;100.00;65435.88;5065870;28;20056;-73
2023/09/23 03:02:58;;;;;;;19.98;13.90;;;;;;;-145.50;100.00;65435.88;5045517;28;20136;-72
2023/09/23 03:05:26;;;;;;;;;;;;;;;-145.50;100.00;65435.88;5066178;28;20102;-72
2023/09/23 03:07:59;;;;;;;19.48;14.07;;;;;;;-145.50;100.00;65435.88;5053965;28;19920;-72
2023/09/23 03:10:32;;;;;;;19.15;13.88;;;;;;;-145.50;100.00;65435.88;5052990;28;20048;-72
2023/09/23 03:13:05;;;;;;;18.45;14.95;;;;;;;-145.50;100.00;65435.88;5058476;28;20138;-72
2023/09/23 03:15:50;;;;;;;21.48;13.57;;;;;;;-145.50;100.00;65435.88;5045985;28;20143;-72
2023/09/23 03:18:27;;;;;;;18.58;13.50;;;;;;;-145.50;100.00;65435.88;5062246;28;20638;-72
2023/09/23 03:20:55;;;;;;;19.23;14.23;;;;;;;-145.50;100.00;65435.88;5035348;28;20067;-72
2023/09/23 03:23:23;;;;;;;18.73;13.32;;;;;;;-145.50;100.00;65435.88;5060990;28;20076;-72
2023/09/23 03:25:51;;;;;;;14.85;11.65;;;;;;;-145.50;100.00;65435.88;5060019;28;20055;-72
2023/09/23 03:28:18;;;;;;;17.95;13.52;;;;;;;-145.50;100.00;65435.88;5059184;28;20107;-72
2023/09/23 03:30:49;;;;;;;19.60;13.30;;;;;;;-145.50;100.00;65435.88;5056762;28;20048;-72
2023/09/23 03:33:20;;;;;;;18.02;12.52;;;;;;;-145.50;100.00;65435.88;5050656;28;20425;-72
2023/09/23 03:35:47;;;;;;;17.65;13.52;;;;;;;-145.50;100.00;65435.88;5053005;28;20060;-71
2023/09/23 03:38:15;;;;;;;21.63;15.02;;;;;;;-145.50;100.00;65435.88;5043658;28;20044;-72
2023/09/23 03:40:50;;;;;;;17.90;13.80;;;;;;;-145.50;100.00;65435.88;5046516;28;20127;-72
2023/09/23 03:43:17;;;;;;;19.17;13.93;;;;;;;-145.50;100.00;65435.88;5053661;28;20054;-71
2023/09/23 03:45:43;;;;;;;20.08;14.60;;;;;;;-145.50;100.00;65435.88;5064590;28;20052;-72
2023/09/23 03:48:12;;;;;;;20.38;13.20;;;;;;;-145.50;100.00;65435.88;5056443;28;20053;-72
2023/09/23 03:50:39;;;;;;;18.15;13.57;;;;;;;-145.50;100.00;65435.88;5043632;28;20063;-73
2023/09/23 03:53:05;;;;;;;17.98;13.55;;;;;;;-145.50;100.00;65435.88;5064778;28;20053;-72
2023/09/23 03:55:32;;;;;;;23.10;14.77;;;;;;;-145.50;100.00;65435.88;5044245;28;20410;-72
2023/09/23 03:58:00;;;;;;;22.45;13.98;;;;;;;-145.50;100.00;65435.88;5054769;28;20059;-72
2023/09/23 04:00:27;;;;;;;19.20;13.35;;;;;;;-145.50;100.00;65435.88;5057104;28;20106;-72
2023/09/23 04:02:54;;;;;;;16.75;12.30;;;;;;;-145.50;100.00;65435.88;5053351;28;20056;-72
2023/09/23 04:05:23;;;;;;;22.25;14.07;;;;;;;-145.50;100.00;65435.88;5059768;28;20497;-72
2023/09/23 04:07:50;;;;;;;18.52;13.52;;;;;;;-145.50;100.00;65435.88;5052747;28;20140;-72
2023/09/23 04:10:24;;;;;;;19.70;13.10;;;;;;;-145.50;100.00;65435.88;5063175;28;20485;-72
2023/09/23 04:12:53;;;;;;;20.40;13.40;;;;;;;-145.50;100.00;65435.88;5058229;28;20053;-72
2023/09/23 04:15:19;;;;;;;;;;;;;;;-145.50;100.00;65435.88;5053344;28;20052;-72
2023/09/23 04:17:47;;;;;;;19.60;12.77;;;;;;;-145.50;100.00;65435.88;5053061;28;19947;-71
2023/09/23 04:20:14;;;;;;;19.07;13.53;;;;;;;-145.50;100.00;65435.88;5049192;28;20523;-72
2023/09/23 04:22:42;;;;;;;19.57;13.23;;;;;;;-145.50;100.00;65435.88;5064221;28;20129;-72
2023/09/23 04:25:10;;;;;;;21.00;15.07;;;;;;;-145.50;100.00;65435.88;5044340;28;20056;-72
2023/09/23 04:27:37;;;;;;;19.23;13.35;;;;;;;-145.50;100.00;65435.88;5060920;28;20297;-72
2023/09/23 04:30:09;;;;;;;20.40;14.23;;;;;;;-145.50;100.00;65435.88;5048190;28;20067;-72
2023/09/23 04:32:39;;;;;;;20.65;14.85;;;;;;;-145.50;100.00;65435.88;5048023;28;20475;-72
2023/09/23 04:35:11;;;;;;;22.95;14.10;;;;;;;-145.50;100.00;65435.88;5052068;28;20128;-73
2023/09/23 04:37:39;;;;;;;29.25;14.77;;;;;;;-145.50;100.00;65435.88;5049441;28;20164;-73
2023/09/23 04:40:11;;;;;;;18.90;13.82;;;;;;;-145.50;100.00;65435.88;5053638;28;20048;-72
2023/09/23 04:42:40;;;;;;;22.08;14.65;;;;;;;-145.50;100.00;65435.88;5052058;28;20041;-72
2023/09/23 04:45:08;;;;;;;21.83;15.10;;;;;;;-145.50;100.00;65435.88;5038950;28;20053;-72
2023/09/23 04:47:35;;;;;;;20.90;13.88;;;;;;;-145.50;100.00;65435.88;5054619;28;20059;-72
2023/09/23 04:50:05;;;;;;;21.73;14.90;;;;;;;-145.50;100.00;65435.88;5064450;28;20036;-72
2023/09/23 04:52:32;;;;;;;19.75;13.27;;;;;;;-145.50;100.00;65435.88;5050909;28;20142;-72
2023/09/23 04:54:59;;;;;;;22.25;14.40;;;;;;;-145.50;100.00;65435.88;5051683;28;20053;-72
2023/09/23 04:57:25;;;;;;;25.60;13.95;;;;;;;-145.50;100.00;65435.88;5056470;28;20463;-70
2023/09/23 04:59:52;;;;;;;20.60;14.07;;;;;;;-145.50;100.00;65435.88;5056951;28;20051;-71
2023/09/23 05:02:19;;;;;;;19.98;14.10;;;;;;;-145.50;100.00;65435.88;5060473;28;20040;-70
2023/09/23 05:04:46;;;;;;;21.05;13.98;;;;;;;-145.50;100.00;65435.88;5052974;28;20509;-70
2023/09/23 05:07:13;;;;;;;19.08;13.90;;;;;;;-145.50;100.00;65435.88;5064084;28;20124;-71
2023/09/23 05:09:41;;;;;;;23.02;13.65;;;;;;;-145.50;100.00;65435.88;5054346;28;20113;-70
2023/09/23 05:12:09;;;;;;;20.52;13.10;;;;;;;-145.50;100.00;65435.88;5052135;28;20072;-70
2023/09/23 05:14:35;;;;;;;17.23;13.15;;;;;;;-145.50;100.00;65435.88;5055916;28;20149;-70
2023/09/23 05:17:04;;;;;;;21.20;13.32;;;;;;;-145.50;100.00;65435.88;5050080;28;20076;-70
2023/09/23 05:19:34;;;;;;;20.70;13.43;;;;;;;-145.50;100.00;65435.88;5053661;28;20048;-71
2023/09/23 05:22:02;;;;;;;21.77;13.18;;;;;;;-145.50;100.00;65435.88;5045688;28;20402;-70
2023/09/23 05:24:29;;;;;;;20.33;12.05;;;;;;;-145.50;100.00;65435.88;5056187;28;20044;-71
2023/09/23 05:26:56;;;;;;;17.83;12.35;;;;;;;-145.50;100.00;65435.88;5040511;28;20494;-73
2023/09/23 05:29:22;;;;;;;19.73;12.38;;;;;;;-145.50;100.00;65435.88;5057587;28;20049;-70
2023/09/23 05:31:49;;;;;;;17.73;11.40;;;;;;;-145.50;100.00;65435.88;5063947;28;20072;-73
2023/09/23 05:34:18;;;;;;;19.90;12.32;;;;;;;-145.50;100.00;65435.88;5045055;28;20053;-72
2023/09/23 05:36:46;;;;;;;16.98;11.68;;;;;;;-145.50;100.00;65435.88;5047771;28;20053;-70
2023/09/23 05:39:19;;;;;;;17.48;11.07;;;;;;;-145.50;100.00;65435.88;5041866;28;20091;-71
2023/09/23 05:41:47;;;;;;;17.58;10.73;;;;;;;-145.50;100.00;65435.88;5051128;28;20048;-70
2023/09/23 05:44:15;;;;;;;21.50;11.05;;;;;;;-145.50;100.00;65435.88;5048411;28;20958;-70
2023/09/23 05:46:42;;;;;;;17.58;11.60;;;;;;;-145.50;100.00;65435.88;5063034;28;20127;-72
2023/09/23 05:49:11;;;;;;;16.88;11.60;;;;;;;-145.50;100.00;65435.88;5049085;28;20080;-74
2023/09/23 05:51:38;;;;;;;17.48;11.32;;;;;;;-145.50;100.00;65435.88;5051648;28;20065;-70
2023/09/23 05:54:07;;;;;;;16.77;10.68;;;;;;;-145.50;100.00;65435.88;5049959;28;20120;-73
2023/09/23 05:56:34;;;;;;;15.27;9.95;;;;;;;-145.50;100.00;65435.88;5038046;28;20044;-70
2023/09/23 05:59:01;;;;;;;13.23;8.90;;;;;;;-145.50;100.00;65435.88;5061854;28;20106;-71
2023/09/23 06:01:27;;;;;;;14.88;9.07;;;;;;;-145.50;100.00;65435.88;5052242;28;20375;-72
2023/09/23 06:03:54;;;;;;;12.73;9.35;;;;;;;-145.50;100.00;65435.88;5062263;28;20075;-70
2023/09/23 06:06:20;;;;;;;14.02;8.80;;;;;;;-145.50;100.00;65435.88;5045170;28;20142;-73
2023/09/23 06:08:48;;;;;;;12.70;9.18;;;;;;;-145.50;100.00;65435.88;5039144;28;20049;-72
2023/09/23 06:11:14;;;;;;;11.63;9.43;;;;;;;-145.50;100.00;65435.88;5061374;28;20788;-72
2023/09/23 06:13:41;;;;;;;17.75;9.68;;;;;;;-145.50;100.00;65435.88;5055768;28;20052;-72
2023/09/23 06:17:06;;;;;;;18.88;9.23;;;;;;;-145.50;100.00;65435.88;5061341;28;20527;-72
2023/09/23 06:20:32;;;;;;;18.65;9.27;;;;;;;-145.50;100.00;65435.88;5047107;28;20060;-73
2023/09/23 06:23:57;;;;;;;14.82;9.35;;;;;;;-145.50;100.00;65435.88;5057941;28;20055;-72
2023/09/23 06:27:22;;;;;;;12.38;9.27;;;;;;;-145.50;100.00;65435.88;5054236;28;20481;-70
2023/09/23 06:30:48;;;;;;;17.45;9.52;;;;;;;-145.50;100.00;65435.88;5048240;28;20107;-70
2023/09/23 06:34:13;;;;;;;17.80;9.35;;;;;;;-145.50;100.00;65435.88;5054896;28;20470;-73
2023/09/23 06:37:38;;;;;;;13.10;9.02;;;;;;;-145.50;100.00;65435.88;5043218;28;20055;-72
2023/09/23 06:41:03;;;;;;;13.88;10.15;;;;;;;-145.50;100.00;65435.88;5056827;28;20048;-69
2023/09/23 06:44:28;;;;;;;12.95;9.00;;;;;;;-145.50;100.00;65435.88;5053549;28;20083;-72
2023/09/23 06:47:53;;;;;;;14.55;8.77;;;;;;;-145.50;100.00;65435.88;5057323;28;20139;-74
2023/09/23 06:51:19;;;;;;;18.20;8.40;;;;;;;-145.50;100.00;65435.88;5055585;28;20120;-72
2023/09/23 06:54:44;;;;;;;15.48;9.65;;;;;;;-145.50;100.00;65435.88;5058778;28;20129;-73
2023/09/23 06:58:09;;;;;;;15.38;9.93;;;;;;;-145.50;100.00;65435.88;5061907;28;20057;-73
2023/09/23 07:01:35;;;;;;;15.07;9.13;;;;;;;-145.50;100.00;65435.88;5056512;28;20044;-73
2023/09/23 07:05:00;;;;;;;12.88;8.82;;;;;;;-145.50;100.00;65435.88;5060736;28;20045;-73
2023/09/23 07:08:26;;;;;;;11.38;8.40;;;;;;;-145.50;100.00;65435.88;5063628;28;20114;-73
2023/09/23 07:11:51;;;;;;;18.65;10.60;;;;;;;-145.50;100.00;65435.88;5049067;28;20774;-74
2023/09/23 07:15:16;;;;;;;17.70;10.10;;;;;;;-145.50;100.00;65435.88;5055837;28;20048;-73
2023/09/23 07:18:43;;;;;;;15.02;9.40;;;;;;;-145.50;100.00;65435.88;5046882;28;20055;-73
2023/09/23 07:22:08;;;;;;;11.57;8.88;;;;;;;-145.50;100.00;65435.88;5061708;28;20143;-72
2023/09/23 07:25:38;;;;;;;12.85;8.70;;;;;;;-145.50;100.00;65435.88;5056720;28;20080;-73
2023/09/23 07:29:06;;;;;;;13.00;8.63;;;;;;;-145.50;100.00;65435.88;5051749;28;20144;-73
2023/09/23 07:32:31;;;;;;;11.98;7.72;;;;;;;-145.50;100.00;65435.88;5053297;28;20044;-73
2023/09/23 07:35:56;;;;;;;13.27;7.60;;;;;;;-145.50;100.00;65435.88;5044662;28;20499;-73
2023/09/23 07:39:22;;;;;;;9.25;7.30;;;;;;;-145.50;100.00;65435.88;5055168;28;20076;-73
2023/09/23 07:42:47;;;;;;;10.18;7.10;;;;;;;-145.50;100.00;65435.88;5053924;28;20056;-73
2023/09/23 07:46:12;;;;;;;15.73;7.60;;;;;;;-145.50;100.00;65435.88;5053355;28;20056;-73
2023/09/23 07:49:38;;;;;;;12.65;7.30;;;;;;;-145.50;100.00;65435.88;5057756;28;20060;-74
2023/09/23 07:53:03;;;;;;;12.52;7.13;;;;;;;-145.50;100.00;65435.88;5049911;28;20525;-73
2023/09/23 07:56:28;;;;;;;10.05;7.38;;;;;;;-145.50;100.00;65435.88;5050690;28;20044;-73
2023/09/23 07:59:53;;;;;;;12.32;7.85;;;;;;;-145.50;100.00;65435.88;5048260;28;20067;-74
2023/09/23 08:03:18;;;;;;;8.90;6.60;;;;;;;-145.50;100.00;65435.88;5055780;28;20258;-73
2023/09/23 08:06:43;;;;;;;12.20;6.78;;;;;;;-145.50;100.00;65435.88;5045081;28;20055;-73
2023/09/23 08:10:08;;;;;;;13.07;7.25;;;;;;;-145.50;100.00;65435.88;5048923;28;20459;-75
2023/09/23 08:13:33;;;;;;;11.65;6.43;;;;;;;-145.50;100.00;65435.88;5058851;28;20102;-74
2023/09/23 08:16:58;;;;;;;8.85;6.20;;;;;;;-145.50;100.00;65435.88;5049869;28;20702;-73
2023/09/23 08:20:26;;;;;;;7.85;5.65;;;;;;;-145.50;100.00;65435.88;5053733;28;20052;-74
2023/09/23 08:23:51;;;;;;;9.98;6.03;;;;;;;-145.50;100.00;65435.88;5061746;28;20425;-74
2023/09/23 08:27:16;;;;;;;8.35;5.40;;;;;;;-145.50;100.00;65435.88;5047348;28;20089;-73
2023/09/23 08:30:43;;;;;;;8.75;5.32;;;;;;;-145.50;100.00;65435.88;5057306;28;20048;-74
2023/09/23 08:34:09;;;;;;;10.98;5.95;;;;;;;-145.50;100.00;65435.88;5051322;28;20056;-74
2023/09/23 08:37:35;;;;;;;9.95;5.60;;;;;;;-145.50;100.00;65435.88;5044828;28;20654;-73
2023/09/23 08:41:03;;;;;;;7.85;4.95;;;;;;;-145.50;100.00;65435.88;5035899;28;20745;-74
2023/09/23 08:44:31;;;;;;;9.60;5.57;;;;;;;-145.50;100.00;65435.88;5040882;28;20452;-73
2023/09/23 08:47:58;;;;;;;10.60;4.32;;;;;;;-145.50;100.00;65435.88;5049430;28;20113;-74
2023/09/23 08:51:25;;;;;;;8.95;4.78;;;;;;;-145.50;100.00;65435.88;5040734;28;20041;-73
2023/09/23 08:54:52;;;;;;;7.97;4.75;;;;;;;-145.50;100.00;65435.88;5043939;28;20059;-74
2023/09/23 08:58:17;;;;;;;8.80;4.47;;;;;;;-145.50;100.00;65435.88;5048914;28;20103;-74
2023/09/23 09:01:27;;;;;;;11.68;4.50;;;;;;;15.04;100.00;99668.47;5045940;28;20064;-74
2023/09/23 09:04:54;;;;;;;7.82;4.22;;;;;;;-145.50;100.00;65435.88;5051736;28;20123;-73
2023/09/23 09:08:20;;;;;;;;;;;;;;;-145.50;100.00;65435.88;5038342;28;20542;-74
2023/09/23 09:11:45;;;;;;;8.77;4.15;;;;;;;-145.50;100.00;65435.88;5044792;28;20242;-74
2023/09/23 09:15:12;;;;;;;8.38;4.18;;;;;;;-145.50;100.00;65435.88;5046699;28;20049;-74
2023/09/23 09:18:37;;;;;;;10.35;4.15;;;;;;;-145.50;100.00;65435.88;5042536;28;20499;-73
2023/09/23 09:22:02;;;;;;;7.63;3.83;;;;;;;-145.50;100.00;65435.88;5037433;28;20048;-74
2023/09/23 09:24:46;;;;;;;8.35;3.75;;;;;;;15.04;100.00;99668.47;5038552;28;20076;-74
2023/09/23 09:28:11;;;;;;;9.25;3.92;;;;;;;-145.50;100.00;65435.88;5049020;28;20177;-74
2023/09/23 09:31:35;;;;;;;8.70;3.83;;;;;;;-145.50;100.00;65435.88;5040559;28;20493;-74
2023/09/23 09:34:47;;;;;;;9.95;4.05;;;;;;;15.04;100.00;99668.47;5049974;28;20044;-74
2023/09/23 09:38:14;;;;;;;12.60;4.47;;;;;;;-145.50;100.00;65435.88;5048700;28;20142;-75
2023/09/23 09:41:46;;;;;;;8.98;4.80;;;;;;;-145.50;100.00;65435.88;5048642;28;20067;-73
2023/09/23 09:45:13;;;;;;;11.75;4.95;;;;;;;-145.50;100.00;65435.88;5060282;28;20594;-73
2023/09/23 09:48:41;;;;;;;9.40;4.53;;;;;;;-145.50;100.00;65435.88;5038861;28;20084;-73
2023/09/23 09:52:07;;;;;;;10.43;4.40;;;;;;;-145.50;100.00;65435.88;5052478;28;20053;-73
2023/09/23 09:55:33;;;;;;;11.55;4.60;;;;;;;-145.50;100.00;65435.88;5052410;28;20101;-73
2023/09/23 09:59:00;;;;;;;9.23;4.70;;;;;;;-145.50;100.00;65435.88;5065619;28;20071;-73
2023/09/23 10:02:27;;;;;;;11.70;5.07;;;;;;;-145.50;100.00;65435.88;5064468;28;20071;-73
2023/09/23 10:06:00;;;;;;;8.63;5.32;;;;;;;-145.50;100.00;65435.88;5043745;28;20073;-73
2023/09/23 10:09:34;;;;;;;7.60;4.50;;;;;;;-145.50;100.00;65435.88;5052423;28;20567;-73
2023/09/23 10:13:27;;;;;;;9.23;4.93;;;;;;;-145.50;100.00;65435.88;5053017;28;20053;-73
2023/09/23 10:17:07;;;;;;;10.90;4.75;;;;;;;-145.50;100.00;65435.88;5043103;28;20049;-73
2023/09/23 10:20:56;;;;;;;11.68;4.55;;;;;;;-145.50;100.00;65435.88;5050914;28;20076;-73
2023/09/23 10:24:22;;;;;;;8.82;4.72;;;;;;;-145.50;100.00;65435.88;5054057;28;20132;-73
2023/09/23 10:27:56;;;;;;;9.05;4.60;;;;;;;-145.50;100.00;65435.88;5040548;28;20056;-73
2023/09/23 10:31:24;;;;;;;7.65;4.55;;;;;;;-145.50;100.00;65435.88;5043139;28;20053;-73
2023/09/23 10:34:50;;;;;;;8.65;4.80;;;;;;;-145.50;100.00;65435.88;5049344;28;20084;-73
2023/09/23 10:38:38;;;;;;;12.75;4.05;;;;;;;-145.50;100.00;65435.88;5052200;28;20056;-73
2023/09/23 10:42:03;;;;;;;8.30;3.85;;;;;;;-145.50;100.00;65435.88;5054762;28;20501;-73
2023/09/23 10:45:28;;;;;;;6.65;3.65;;;;;;;-145.50;100.00;65435.88;5038786;28;20136;-74
2023/09/23 10:48:53;;;;;;;8.63;4.35;;;;;;;-145.50;100.00;65435.88;5052034;28;20140;-73
2023/09/23 10:52:19;;;;;;;7.90;4.13;;;;;;;-145.50;100.00;65435.88;5045914;28;20131;-73
2023/09/23 10:55:46;;;;;;;12.65;4.57;;;;;;;-145.50;100.00;65435.88;5051515;28;20320;-73
2023/09/23 10:59:12;;;;;;;9.40;4.37;;;;;;;-145.50;100.00;65435.88;5050632;28;20109;-73
2023/09/23 11:02:42;;;;;;;10.55;4.25;;;;;;;-145.50;100.00;65435.88;5048310;28;20540;-73
2023/09/23 11:06:08;;;;;;;8.27;3.97;;;;;;;-145.50;100.00;65435.88;5047706;28;20045;-74
2023/09/23 11:09:35;;;;;;;5.72;3.60;;;;;;;-145.50;100.00;65435.88;5041891;28;20060;-73
2023/09/23 11:13:11;;;;;;;7.93;3.50;;;;;;;-145.50;100.00;65435.88;5045423;28;20501;-74
2023/09/23 11:16:41;;;;;;;6.60;3.38;;;;;;;-145.50;100.00;65435.88;5032010;28;20520;-74
2023/09/23 11:20:10;;;;;;;6.38;3.60;;;;;;;-145.50;100.00;65435.88;5041573;28;20053;-74
2023/09/23 11:23:35;;;;;;;7.22;3.80;;;;;;;-145.50;100.00;65435.88;5052479;28;20555;-74
2023/09/23 11:27:05;;;;;;;6.85;3.33;;;;;;;-145.50;100.00;65435.88;5034840;28;20235;-74
2023/09/23 11:30:30;;;;;;;7.55;3.25;;;;;;;-145.50;100.00;65435.88;5054269;28;20187;-74
2023/09/23 11:33:55;;;;;;;4.72;3.35;;;;;;;-145.50;100.00;65435.88;5047932;28;20044;-75
2023/09/23 11:37:22;;;;;;;8.25;3.30;;;;;;;-145.50;100.00;65435.88;5050991;28;20044;-73
2023/09/23 11:40:48;;;;;;;10.20;4.22;;;;;;;-145.50;100.00;65435.88;5038493;28;20456;-74
2023/09/23 11:44:13;;;;;;;8.20;3.67;;;;;;;-145.50;100.00;65435.88;5050230;28;20052;-73
2023/09/23 11:47:38;;;;;;;8.35;3.78;;;;;;;-145.50;100.00;65435.88;5051464;28;20131;-73
2023/09/23 11:51:04;;;;;;;15.38;4.10;;;;;;;-145.50;100.00;65435.88;5048276;28;20059;-73
2023/09/23 11:54:29;;;;;;;12.20;4.00;;;;;;;-145.50;100.00;65435.88;5048758;28;20166;-76
2023/09/23 11:57:55;;;;;;;5.47;4.10;;;;;;;-145.50;100.00;65435.88;5058268;28;20050;-74
2023/09/23 12:01:20;;;;;;;8.88;4.70;;;;;;;-145.50;100.00;65435.88;5047015;28;21285;-74
2023/09/23 12:04:48;;;;;;;7.68;4.43;;;;;;;-145.50;100.00;65435.88;5054227;28;20045;-74
2023/09/23 12:08:14;;;;;;;9.32;4.53;;;;;;;-145.50;100.00;65435.88;5038716;28;20069;-74
2023/09/23 12:11:39;;;;;;;7.68;4.80;;;;;;;-145.50;100.00;65435.88;5054482;28;20481;-74
2023/09/23 12:15:05;;;;;;;9.05;4.72;;;;;;;-145.50;100.00;65435.88;5053161;28;20791;-74
2023/09/23 12:18:30;;;;;;;6.53;4.00;;;;;;;-145.50;100.00;65435.88;5047991;28;20067;-74
2023/09/23 12:21:56;;;;;;;8.77;3.83;;;;;;;-145.50;100.00;65435.88;5052368;28;20610;-74
2023/09/23 12:25:21;;;;;;;9.32;3.67;;;;;;;-145.50;100.00;65435.88;5049105;28;20044;-74
2023/09/23 12:28:46;;;;;;;5.32;3.35;;;;;;;-145.50;100.00;65435.88;5048618;28;20228;-74
2023/09/23 12:32:11;;;;;;;6.32;2.88;;;;;;;-145.50;100.00;65435.88;5051266;28;20464;-74
2023/09/23 12:35:37;;;;;;;5.78;2.50;;;;;;;-145.50;100.00;65435.88;5038880;28;20459;-74
2023/09/23 12:39:02;;;;;;;5.85;2.30;;;;;;;-145.50;100.00;65435.88;5044791;28;20041;-74
2023/09/23 12:42:28;;;;;;;8.95;2.78;;;;;;;-145.50;100.00;65435.88;5047173;28;20470;-74
2023/09/23 12:45:53;;;;;;;4.85;2.08;;;;;;;-145.50;100.00;65435.88;5045659;28;20734;-74
2023/09/23 12:49:18;;;;;;;5.60;2.38;;;;;;;-145.50;100.00;65435.88;5037916;28;20130;-74
2023/09/23 12:52:43;;;;;;;6.57;2.78;;;;;;;-145.50;100.00;65435.88;5054239;28;20148;-74
2023/09/23 12:56:09;;;;;;;7.07;2.10;;;;;;;-145.50;100.00;65435.88;5049265;28;20135;-74
2023/09/23 12:59:34;;;;;;;5.90;2.08;;;;;;;-145.50;100.00;65435.88;5046406;28;20076;-75
2023/09/23 13:02:59;;;;;;;4.32;1.88;;;;;;;-145.50;100.00;65435.88;5045368;28;20056;-74